sensor_id;sensor_type;location;lat;lon;timestamp;P1;P2;P0
51052;PMS5003;37093;37.716;-122.060;2023-06-14T00:00:51;3;2;
51052;PMS5003;37093;37.716;-122.060;2023-06-14T00:03:20;3;3;
51052;PMS5003;37093;37.716;-122.060;2023-06-14T00:05:48;2;2;
51052;PMS5003;37093;37.716;-122.060;2023-06-14T00:08:17;4;3;
51052;PMS5003;37093;37.716;-122.060;2023-06-14T00:10:45;3;2;
51052;PMS5003;37093;37.716;-122.060;2023-06-14T00:13:14;2;2;
51052;PMS5003;37093;37.716;-122.060;2023-06-14T00:15:42;4;3;
51052;PMS5003;37093;37.716;-122.060;2023-06-14T00:18:11;2;2;
51052;PMS5003;37093;37.716;-122.060;2023-06-14T00:20:39;3;3;
51052;PMS5003;37093;37.716;-122.060;2023-06-14T00:23:08;1;1;
51052;PMS5003;37093;37.716;-122.060;2023-06-14T00:25:36;4;4;
51052;PMS5003;37093;37.716;-122.060;2023-06-14T00:28:05;1;0;
51052;PMS5003;37093;37.716;-122.060;2023-06-14T00:30:33;5;4;
51052;PMS5003;37093;37.716;-122.060;2023-06-14T00:33:02;4;4;
51052;PMS5003;37093;37.716;-122.060;2023-06-14T00:35:30;3;1;
51052;PMS5003;37093;37.716;-122.060;2023-06-14T00:37:59;2;1;
51052;PMS5003;37093;37.716;-122.060;2023-06-14T00:40:27;5;4;
51052;PMS5003;37093;37.716;-122.060;2023-06-14T00:42:55;2;2;
51052;PMS5003;37093;37.716;-122.060;2023-06-14T00:45:24;2;2;
51052;PMS5003;37093;37.716;-122.060;2023-06-14T00:47:52;2;2;
51052;PMS5003;37093;37.716;-122.060;2023-06-14T00:50:21;2;2;
51052;PMS5003;37093;37.716;-122.060;2023-06-14T00:52:49;4;3;
51052;PMS5003;37093;37.716;-122.060;2023-06-14T00:55:18;2;1;
51052;PMS5003;37093;37.716;-122.060;2023-06-14T00:57:46;2;2;
51052;PMS5003;37093;37.716;-122.060;2023-06-14T01:00:16;2;2;
51052;PMS5003;37093;37.716;-122.060;2023-06-14T01:02:44;3;3;
51052;PMS5003;37093;37.716;-122.060;2023-06-14T01:05:13;2;2;
51052;PMS5003;37093;37.716;-122.060;2023-06-14T01:07:46;3;3;
51052;PMS5003;37093;37.716;-122.060;2023-06-14T01:10:30;2;2;
51052;PMS5003;37093;37.716;-122.060;2023-06-14T01:13:10;3;2;
51052;PMS5003;37093;37.716;-122.060;2023-06-14T01:15:47;2;1;
51052;PMS5003;37093;37.716;-122.060;2023-06-14T01:18:17;2;2;
51052;PMS5003;37093;37.716;-122.060;2023-06-14T01:20:46;3;1;
51052;PMS5003;37093;37.716;-122.060;2023-06-14T01:23:15;2;1;
51052;PMS5003;37093;37.716;-122.060;2023-06-14T01:25:43;2;2;
51052;PMS5003;37093;37.716;-122.060;2023-06-14T01:28:12;1;1;
51052;PMS5003;37093;37.716;-122.060;2023-06-14T01:30:42;1;1;
51052;PMS5003;37093;37.716;-122.060;2023-06-14T01:33:14;3;2;
51052;PMS5003;37093;37.716;-122.060;2023-06-14T01:35:47;2;2;
51052;PMS5003;37093;37.716;-122.060;2023-06-14T01:38:17;1;1;
51052;PMS5003;37093;37.716;-122.060;2023-06-14T01:40:47;2;2;
51052;PMS5003;37093;37.716;-122.060;2023-06-14T01:43:17;2;2;
51052;PMS5003;37093;37.716;-122.060;2023-06-14T01:45:47;2;2;
51052;PMS5003;37093;37.716;-122.060;2023-06-14T01:48:18;3;3;
51052;PMS5003;37093;37.716;-122.060;2023-06-14T01:50:48;2;2;
51052;PMS5003;37093;37.716;-122.060;2023-06-14T01:53:16;1;1;
51052;PMS5003;37093;37.716;-122.060;2023-06-14T01:55:45;2;2;
51052;PMS5003;37093;37.716;-122.060;2023-06-14T01:58:13;2;2;
51052;PMS5003;37093;37.716;-122.060;2023-06-14T02:00:43;5;2;
51052;PMS5003;37093;37.716;-122.060;2023-06-14T02:03:12;2;2;
51052;PMS5003;37093;37.716;-122.060;2023-06-14T02:05:41;3;3;
51052;PMS5003;37093;37.716;-122.060;2023-06-14T02:08:09;3;2;
51052;PMS5003;37093;37.716;-122.060;2023-06-14T02:10:38;2;2;
51052;PMS5003;37093;37.716;-122.060;2023-06-14T02:13:06;1;1;
51052;PMS5003;37093;37.716;-122.060;2023-06-14T02:15:34;4;2;
51052;PMS5003;37093;37.716;-122.060;2023-06-14T02:18:03;2;1;
51052;PMS5003;37093;37.716;-122.060;2023-06-14T02:20:32;1;1;
51052;PMS5003;37093;37.716;-122.060;2023-06-14T02:23:00;2;2;
51052;PMS5003;37093;37.716;-122.060;2023-06-14T02:25:28;5;3;
51052;PMS5003;37093;37.716;-122.060;2023-06-14T02:27:57;2;2;
51052;PMS5003;37093;37.716;-122.060;2023-06-14T02:30:26;2;2;
51052;PMS5003;37093;37.716;-122.060;2023-06-14T02:32:54;2;1;
51052;PMS5003;37093;37.716;-122.060;2023-06-14T02:35:23;2;2;
51052;PMS5003;37093;37.716;-122.060;2023-06-14T02:37:51;2;2;
51052;PMS5003;37093;37.716;-122.060;2023-06-14T02:40:20;4;2;
51052;PMS5003;37093;37.716;-122.060;2023-06-14T02:42:48;0;0;
51052;PMS5003;37093;37.716;-122.060;2023-06-14T02:45:17;3;2;
51052;PMS5003;37093;37.716;-122.060;2023-06-14T02:47:45;4;2;
51052;PMS5003;37093;37.716;-122.060;2023-06-14T02:50:14;1;1;
51052;PMS5003;37093;37.716;-122.060;2023-06-14T02:52:42;0;0;
51052;PMS5003;37093;37.716;-122.060;2023-06-14T02:55:11;1;1;
51052;PMS5003;37093;37.716;-122.060;2023-06-14T02:57:39;0;0;
51052;PMS5003;37093;37.716;-122.060;2023-06-14T03:00:08;2;1;
51052;PMS5003;37093;37.716;-122.060;2023-06-14T03:02:37;3;3;
51052;PMS5003;37093;37.716;-122.060;2023-06-14T03:05:06;2;2;
51052;PMS5003;37093;37.716;-122.060;2023-06-14T03:07:35;1;1;
51052;PMS5003;37093;37.716;-122.060;2023-06-14T03:10:04;1;1;
51052;PMS5003;37093;37.716;-122.060;2023-06-14T03:12:33;3;1;
51052;PMS5003;37093;37.716;-122.060;2023-06-14T03:15:01;1;0;
51052;PMS5003;37093;37.716;-122.060;2023-06-14T03:17:30;1;1;
51052;PMS5003;37093;37.716;-122.060;2023-06-14T03:19:59;1;1;
51052;PMS5003;37093;37.716;-122.060;2023-06-14T03:22:27;0;0;
51052;PMS5003;37093;37.716;-122.060;2023-06-14T03:24:55;1;1;
51052;PMS5003;37093;37.716;-122.060;2023-06-14T03:27:24;1;1;
51052;PMS5003;37093;37.716;-122.060;2023-06-14T03:29:52;0;0;
51052;PMS5003;37093;37.716;-122.060;2023-06-14T03:32:21;2;1;
51052;PMS5003;37093;37.716;-122.060;2023-06-14T03:34:49;2;2;
51052;PMS5003;37093;37.716;-122.060;2023-06-14T03:37:19;2;1;
51052;PMS5003;37093;37.716;-122.060;2023-06-14T03:39:47;2;0;
51052;PMS5003;37093;37.716;-122.060;2023-06-14T03:42:16;2;2;
51052;PMS5003;37093;37.716;-122.060;2023-06-14T03:44:44;3;2;
51052;PMS5003;37093;37.716;-122.060;2023-06-14T03:47:13;1;1;
51052;PMS5003;37093;37.716;-122.060;2023-06-14T03:49:41;2;2;
51052;PMS5003;37093;37.716;-122.060;2023-06-14T03:52:10;1;1;
51052;PMS5003;37093;37.716;-122.060;2023-06-14T03:54:39;1;1;
51052;PMS5003;37093;37.716;-122.060;2023-06-14T03:57:07;3;3;
51052;PMS5003;37093;37.716;-122.060;2023-06-14T03:59:36;4;1;
51052;PMS5003;37093;37.716;-122.060;2023-06-14T04:02:04;3;3;
51052;PMS5003;37093;37.716;-122.060;2023-06-14T04:04:33;1;1;
51052;PMS5003;37093;37.716;-122.060;2023-06-14T04:07:01;1;1;
51052;PMS5003;37093;37.716;-122.060;2023-06-14T04:09:30;5;3;
51052;PMS5003;37093;37.716;-122.060;2023-06-14T04:11:58;3;2;
51052;PMS5003;37093;37.716;-122.060;2023-06-14T04:14:27;3;2;
51052;PMS5003;37093;37.716;-122.060;2023-06-14T04:16:55;2;2;
51052;PMS5003;37093;37.716;-122.060;2023-06-14T04:19:24;2;2;
51052;PMS5003;37093;37.716;-122.060;2023-06-14T04:21:52;4;2;
51052;PMS5003;37093;37.716;-122.060;2023-06-14T04:24:21;4;2;
51052;PMS5003;37093;37.716;-122.060;2023-06-14T04:26:49;4;3;
51052;PMS5003;37093;37.716;-122.060;2023-06-14T04:29:18;4;3;
51052;PMS5003;37093;37.716;-122.060;2023-06-14T04:31:47;5;5;
51052;PMS5003;37093;37.716;-122.060;2023-06-14T04:34:15;4;4;
51052;PMS5003;37093;37.716;-122.060;2023-06-14T04:36:44;0;0;
51052;PMS5003;37093;37.716;-122.060;2023-06-14T04:39:13;3;3;
51052;PMS5003;37093;37.716;-122.060;2023-06-14T04:41:41;4;3;
51052;PMS5003;37093;37.716;-122.060;2023-06-14T04:44:10;2;2;
51052;PMS5003;37093;37.716;-122.060;2023-06-14T04:46:39;3;3;
51052;PMS5003;37093;37.716;-122.060;2023-06-14T04:49:07;2;1;
51052;PMS5003;37093;37.716;-122.060;2023-06-14T04:51:36;2;2;
51052;PMS5003;37093;37.716;-122.060;2023-06-14T04:54:04;3;3;
51052;PMS5003;37093;37.716;-122.060;2023-06-14T04:56:33;3;3;
51052;PMS5003;37093;37.716;-122.060;2023-06-14T04:59:01;6;6;
51052;PMS5003;37093;37.716;-122.060;2023-06-14T05:01:30;5;4;
51052;PMS5003;37093;37.716;-122.060;2023-06-14T05:03:58;2;2;
51052;PMS5003;37093;37.716;-122.060;2023-06-14T05:06:28;4;4;
51052;PMS5003;37093;37.716;-122.060;2023-06-14T05:08:56;4;3;
51052;PMS5003;37093;37.716;-122.060;2023-06-14T05:11:25;3;3;
51052;PMS5003;37093;37.716;-122.060;2023-06-14T05:13:53;2;2;
51052;PMS5003;37093;37.716;-122.060;2023-06-14T05:16:22;6;4;
51052;PMS5003;37093;37.716;-122.060;2023-06-14T05:18:50;4;3;
51052;PMS5003;37093;37.716;-122.060;2023-06-14T05:21:19;3;3;
51052;PMS5003;37093;37.716;-122.060;2023-06-14T05:23:48;3;3;
51052;PMS5003;37093;37.716;-122.060;2023-06-14T05:26:16;3;3;
51052;PMS5003;37093;37.716;-122.060;2023-06-14T05:28:45;4;4;
51052;PMS5003;37093;37.716;-122.060;2023-06-14T05:31:13;4;4;
51052;PMS5003;37093;37.716;-122.060;2023-06-14T05:33:42;3;3;
51052;PMS5003;37093;37.716;-122.060;2023-06-14T05:36:10;4;2;
51052;PMS5003;37093;37.716;-122.060;2023-06-14T05:38:39;5;4;
51052;PMS5003;37093;37.716;-122.060;2023-06-14T05:41:08;5;4;
51052;PMS5003;37093;37.716;-122.060;2023-06-14T05:43:37;6;4;
51052;PMS5003;37093;37.716;-122.060;2023-06-14T05:46:06;3;2;
51052;PMS5003;37093;37.716;-122.060;2023-06-14T05:48:34;5;4;
51052;PMS5003;37093;37.716;-122.060;2023-06-14T05:51:02;5;4;
51052;PMS5003;37093;37.716;-122.060;2023-06-14T05:53:31;6;4;
51052;PMS5003;37093;37.716;-122.060;2023-06-14T05:55:59;4;4;
51052;PMS5003;37093;37.716;-122.060;2023-06-14T05:58:28;3;3;
51052;PMS5003;37093;37.716;-122.060;2023-06-14T06:00:56;6;4;
51052;PMS5003;37093;37.716;-122.060;2023-06-14T06:03:25;4;4;
51052;PMS5003;37093;37.716;-122.060;2023-06-14T06:05:53;3;3;
51052;PMS5003;37093;37.716;-122.060;2023-06-14T06:08:22;6;4;
51052;PMS5003;37093;37.716;-122.060;2023-06-14T06:10:51;3;3;
51052;PMS5003;37093;37.716;-122.060;2023-06-14T06:13:19;4;4;
51052;PMS5003;37093;37.716;-122.060;2023-06-14T06:15:48;3;3;
51052;PMS5003;37093;37.716;-122.060;2023-06-14T06:18:16;4;4;
51052;PMS5003;37093;37.716;-122.060;2023-06-14T06:20:45;4;2;
51052;PMS5003;37093;37.716;-122.060;2023-06-14T06:23:13;2;2;
51052;PMS5003;37093;37.716;-122.060;2023-06-14T06:25:42;5;4;
51052;PMS5003;37093;37.716;-122.060;2023-06-14T06:28:10;3;3;
51052;PMS5003;37093;37.716;-122.060;2023-06-14T06:30:39;3;3;
51052;PMS5003;37093;37.716;-122.060;2023-06-14T06:33:07;6;4;
51052;PMS5003;37093;37.716;-122.060;2023-06-14T06:35:36;3;3;
51052;PMS5003;37093;37.716;-122.060;2023-06-14T06:38:05;3;1;
51052;PMS5003;37093;37.716;-122.060;2023-06-14T06:40:33;3;3;
51052;PMS5003;37093;37.716;-122.060;2023-06-14T06:43:02;5;3;
51052;PMS5003;37093;37.716;-122.060;2023-06-14T06:45:30;4;3;
51052;PMS5003;37093;37.716;-122.060;2023-06-14T06:47:59;2;2;
51052;PMS5003;37093;37.716;-122.060;2023-06-14T06:50:27;6;2;
51052;PMS5003;37093;37.716;-122.060;2023-06-14T06:52:56;3;2;
51052;PMS5003;37093;37.716;-122.060;2023-06-14T06:55:24;5;5;
51052;PMS5003;37093;37.716;-122.060;2023-06-14T06:57:53;4;2;
51052;PMS5003;37093;37.716;-122.060;2023-06-14T07:01:10;2;2;
51052;PMS5003;37093;37.716;-122.060;2023-06-14T07:03:40;5;3;
51052;PMS5003;37093;37.716;-122.060;2023-06-14T07:06:08;5;4;
51052;PMS5003;37093;37.716;-122.060;2023-06-14T07:08:37;3;3;
51052;PMS5003;37093;37.716;-122.060;2023-06-14T07:11:05;6;4;
51052;PMS5003;37093;37.716;-122.060;2023-06-14T07:13:33;3;3;
51052;PMS5003;37093;37.716;-122.060;2023-06-14T07:16:03;2;2;
51052;PMS5003;37093;37.716;-122.060;2023-06-14T07:18:32;3;3;
51052;PMS5003;37093;37.716;-122.060;2023-06-14T07:21:01;4;4;
51052;PMS5003;37093;37.716;-122.060;2023-06-14T07:23:30;5;4;
51052;PMS5003;37093;37.716;-122.060;2023-06-14T07:25:58;3;3;
51052;PMS5003;37093;37.716;-122.060;2023-06-14T07:28:27;4;4;
51052;PMS5003;37093;37.716;-122.060;2023-06-14T07:30:55;3;3;
51052;PMS5003;37093;37.716;-122.060;2023-06-14T07:33:23;4;4;
51052;PMS5003;37093;37.716;-122.060;2023-06-14T07:35:52;4;4;
51052;PMS5003;37093;37.716;-122.060;2023-06-14T07:38:21;6;4;
51052;PMS5003;37093;37.716;-122.060;2023-06-14T07:40:49;3;3;
51052;PMS5003;37093;37.716;-122.060;2023-06-14T07:43:18;3;3;
51052;PMS5003;37093;37.716;-122.060;2023-06-14T07:45:46;4;3;
51052;PMS5003;37093;37.716;-122.060;2023-06-14T07:48:15;6;4;
51052;PMS5003;37093;37.716;-122.060;2023-06-14T07:50:43;3;3;
51052;PMS5003;37093;37.716;-122.060;2023-06-14T07:53:12;4;3;
51052;PMS5003;37093;37.716;-122.060;2023-06-14T07:55:40;7;5;
51052;PMS5003;37093;37.716;-122.060;2023-06-14T07:58:09;6;6;
51052;PMS5003;37093;37.716;-122.060;2023-06-14T08:00:37;7;4;
51052;PMS5003;37093;37.716;-122.060;2023-06-14T08:03:06;4;3;
51052;PMS5003;37093;37.716;-122.060;2023-06-14T08:05:34;5;5;
51052;PMS5003;37093;37.716;-122.060;2023-06-14T08:08:03;6;5;
51052;PMS5003;37093;37.716;-122.060;2023-06-14T08:10:31;6;6;
51052;PMS5003;37093;37.716;-122.060;2023-06-14T08:13:00;6;6;
51052;PMS5003;37093;37.716;-122.060;2023-06-14T08:15:28;7;7;
51052;PMS5003;37093;37.716;-122.060;2023-06-14T08:17:57;8;5;
51052;PMS5003;37093;37.716;-122.060;2023-06-14T08:20:25;4;4;
51052;PMS5003;37093;37.716;-122.060;2023-06-14T08:22:54;5;5;
51052;PMS5003;37093;37.716;-122.060;2023-06-14T08:25:22;5;4;
51052;PMS5003;37093;37.716;-122.060;2023-06-14T08:27:51;6;4;
51052;PMS5003;37093;37.716;-122.060;2023-06-14T08:30:20;6;5;
51052;PMS5003;37093;37.716;-122.060;2023-06-14T08:32:48;7;7;
51052;PMS5003;37093;37.716;-122.060;2023-06-14T08:35:17;9;6;
51052;PMS5003;37093;37.716;-122.060;2023-06-14T08:37:45;8;7;
51052;PMS5003;37093;37.716;-122.060;2023-06-14T08:40:18;6;4;
51052;PMS5003;37093;37.716;-122.060;2023-06-14T08:42:50;5;5;
51052;PMS5003;37093;37.716;-122.060;2023-06-14T08:45:20;17;5;
51052;PMS5003;37093;37.716;-122.060;2023-06-14T08:47:48;5;5;
51052;PMS5003;37093;37.716;-122.060;2023-06-14T08:50:20;4;4;
51052;PMS5003;37093;37.716;-122.060;2023-06-14T08:52:50;7;6;
51052;PMS5003;37093;37.716;-122.060;2023-06-14T08:55:21;3;3;
51052;PMS5003;37093;37.716;-122.060;2023-06-14T08:57:51;3;3;
51052;PMS5003;37093;37.716;-122.060;2023-06-14T09:00:20;2;2;
51052;PMS5003;37093;37.716;-122.060;2023-06-14T09:02:49;2;2;
51052;PMS5003;37093;37.716;-122.060;2023-06-14T09:05:17;8;5;
51052;PMS5003;37093;37.716;-122.060;2023-06-14T09:07:46;3;3;
51052;PMS5003;37093;37.716;-122.060;2023-06-14T09:10:15;5;3;
51052;PMS5003;37093;37.716;-122.060;2023-06-14T09:12:44;6;4;
51052;PMS5003;37093;37.716;-122.060;2023-06-14T09:15:12;4;4;
51052;PMS5003;37093;37.716;-122.060;2023-06-14T09:17:41;4;4;
51052;PMS5003;37093;37.716;-122.060;2023-06-14T09:20:09;7;6;
51052;PMS5003;37093;37.716;-122.060;2023-06-14T09:22:39;5;3;
51052;PMS5003;37093;37.716;-122.060;2023-06-14T09:25:07;3;3;
51052;PMS5003;37093;37.716;-122.060;2023-06-14T09:27:36;3;3;
51052;PMS5003;37093;37.716;-122.060;2023-06-14T09:30:05;3;3;
51052;PMS5003;37093;37.716;-122.060;2023-06-14T09:32:37;2;2;
51052;PMS5003;37093;37.716;-122.060;2023-06-14T09:35:06;4;2;
51052;PMS5003;37093;37.716;-122.060;2023-06-14T09:37:35;5;3;
51052;PMS5003;37093;37.716;-122.060;2023-06-14T09:40:03;4;3;
51052;PMS5003;37093;37.716;-122.060;2023-06-14T09:42:33;5;3;
51052;PMS5003;37093;37.716;-122.060;2023-06-14T09:45:01;3;3;
51052;PMS5003;37093;37.716;-122.060;2023-06-14T09:47:30;4;4;
51052;PMS5003;37093;37.716;-122.060;2023-06-14T09:49:59;3;3;
51052;PMS5003;37093;37.716;-122.060;2023-06-14T09:52:28;4;4;
51052;PMS5003;37093;37.716;-122.060;2023-06-14T09:54:57;6;6;
51052;PMS5003;37093;37.716;-122.060;2023-06-14T09:57:27;4;4;
51052;PMS5003;37093;37.716;-122.060;2023-06-14T09:59:57;3;3;
51052;PMS5003;37093;37.716;-122.060;2023-06-14T10:02:29;6;5;
51052;PMS5003;37093;37.716;-122.060;2023-06-14T10:05:04;4;3;
51052;PMS5003;37093;37.716;-122.060;2023-06-14T10:07:35;5;5;
51052;PMS5003;37093;37.716;-122.060;2023-06-14T10:10:08;5;5;
51052;PMS5003;37093;37.716;-122.060;2023-06-14T10:12:37;6;5;
51052;PMS5003;37093;37.716;-122.060;2023-06-14T10:15:07;5;4;
51052;PMS5003;37093;37.716;-122.060;2023-06-14T10:17:40;9;7;
51052;PMS5003;37093;37.716;-122.060;2023-06-14T10:20:18;8;6;
51052;PMS5003;37093;37.716;-122.060;2023-06-14T10:22:56;5;5;
51052;PMS5003;37093;37.716;-122.060;2023-06-14T10:25:31;3;3;
51052;PMS5003;37093;37.716;-122.060;2023-06-14T10:28:05;8;6;
51052;PMS5003;37093;37.716;-122.060;2023-06-14T10:31:01;5;5;
51052;PMS5003;37093;37.716;-122.060;2023-06-14T10:33:30;7;6;
51052;PMS5003;37093;37.716;-122.060;2023-06-14T10:36:07;7;5;
51052;PMS5003;37093;37.716;-122.060;2023-06-14T10:38:37;6;5;
51052;PMS5003;37093;37.716;-122.060;2023-06-14T10:41:05;6;6;
51052;PMS5003;37093;37.716;-122.060;2023-06-14T10:43:34;4;4;
51052;PMS5003;37093;37.716;-122.060;2023-06-14T10:46:18;6;5;
51052;PMS5003;37093;37.716;-122.060;2023-06-14T10:48:47;3;3;
51052;PMS5003;37093;37.716;-122.060;2023-06-14T10:51:16;7;7;
51052;PMS5003;37093;37.716;-122.060;2023-06-14T10:53:45;15;5;
51052;PMS5003;37093;37.716;-122.060;2023-06-14T10:56:30;5;4;
51052;PMS5003;37093;37.716;-122.060;2023-06-14T10:58:59;6;6;
51052;PMS5003;37093;37.716;-122.060;2023-06-14T11:01:32;6;6;
51052;PMS5003;37093;37.716;-122.060;2023-06-14T11:04:07;6;4;
51052;PMS5003;37093;37.716;-122.060;2023-06-14T11:06:43;5;5;
51052;PMS5003;37093;37.716;-122.060;2023-06-14T11:09:51;5;5;
51052;PMS5003;37093;37.716;-122.060;2023-06-14T11:12:32;7;7;
51052;PMS5003;37093;37.716;-122.060;2023-06-14T11:15:02;7;6;
51052;PMS5003;37093;37.716;-122.060;2023-06-14T11:17:32;6;5;
51052;PMS5003;37093;37.716;-122.060;2023-06-14T11:20:08;7;7;
51052;PMS5003;37093;37.716;-122.060;2023-06-14T11:22:40;8;6;
51052;PMS5003;37093;37.716;-122.060;2023-06-14T11:25:09;7;5;
51052;PMS5003;37093;37.716;-122.060;2023-06-14T11:27:38;6;6;
51052;PMS5003;37093;37.716;-122.060;2023-06-14T11:30:11;6;5;
51052;PMS5003;37093;37.716;-122.060;2023-06-14T11:32:40;6;6;
51052;PMS5003;37093;37.716;-122.060;2023-06-14T11:35:08;7;6;
51052;PMS5003;37093;37.716;-122.060;2023-06-14T11:37:37;7;4;
51052;PMS5003;37093;37.716;-122.060;2023-06-14T11:40:07;7;5;
51052;PMS5003;37093;37.716;-122.060;2023-06-14T11:42:38;6;4;
51052;PMS5003;37093;37.716;-122.060;2023-06-14T11:45:08;6;5;
51052;PMS5003;37093;37.716;-122.060;2023-06-14T11:47:37;5;3;
51052;PMS5003;37093;37.716;-122.060;2023-06-14T11:50:07;4;4;
51052;PMS5003;37093;37.716;-122.060;2023-06-14T11:52:36;4;4;
51052;PMS5003;37093;37.716;-122.060;2023-06-14T11:55:05;5;5;
51052;PMS5003;37093;37.716;-122.060;2023-06-14T11:57:34;5;4;
51052;PMS5003;37093;37.716;-122.060;2023-06-14T12:00:03;5;4;
51052;PMS5003;37093;37.716;-122.060;2023-06-14T12:02:34;4;4;
51052;PMS5003;37093;37.716;-122.060;2023-06-14T12:05:04;7;6;
51052;PMS5003;37093;37.716;-122.060;2023-06-14T12:07:34;5;5;
51052;PMS5003;37093;37.716;-122.060;2023-06-14T12:10:04;5;4;
51052;PMS5003;37093;37.716;-122.060;2023-06-14T12:12:36;4;4;
51052;PMS5003;37093;37.716;-122.060;2023-06-14T12:15:07;4;4;
51052;PMS5003;37093;37.716;-122.060;2023-06-14T12:17:37;4;3;
51052;PMS5003;37093;37.716;-122.060;2023-06-14T12:20:06;5;4;
51052;PMS5003;37093;37.716;-122.060;2023-06-14T12:22:35;4;3;
51052;PMS5003;37093;37.716;-122.060;2023-06-14T12:25:04;6;5;
51052;PMS5003;37093;37.716;-122.060;2023-06-14T12:27:33;4;3;
51052;PMS5003;37093;37.716;-122.060;2023-06-14T12:30:02;5;5;
51052;PMS5003;37093;37.716;-122.060;2023-06-14T12:32:31;17;5;
51052;PMS5003;37093;37.716;-122.060;2023-06-14T12:35:00;6;5;
51052;PMS5003;37093;37.716;-122.060;2023-06-14T12:37:28;4;3;
51052;PMS5003;37093;37.716;-122.060;2023-06-14T12:39:57;5;5;
51052;PMS5003;37093;37.716;-122.060;2023-06-14T12:42:25;9;8;
51052;PMS5003;37093;37.716;-122.060;2023-06-14T12:44:54;6;5;
51052;PMS5003;37093;37.716;-122.060;2023-06-14T12:47:22;6;6;
51052;PMS5003;37093;37.716;-122.060;2023-06-14T12:49:51;9;7;
51052;PMS5003;37093;37.716;-122.060;2023-06-14T12:52:19;8;7;
51052;PMS5003;37093;37.716;-122.060;2023-06-14T12:54:47;7;4;
51052;PMS5003;37093;37.716;-122.060;2023-06-14T12:57:17;5;4;
51052;PMS5003;37093;37.716;-122.060;2023-06-14T12:59:45;4;4;
51052;PMS5003;37093;37.716;-122.060;2023-06-14T13:02:15;4;2;
51052;PMS5003;37093;37.716;-122.060;2023-06-14T13:04:44;8;6;
51052;PMS5003;37093;37.716;-122.060;2023-06-14T13:07:13;6;6;
51052;PMS5003;37093;37.716;-122.060;2023-06-14T13:09:41;5;3;
51052;PMS5003;37093;37.716;-122.060;2023-06-14T13:12:10;7;6;
51052;PMS5003;37093;37.716;-122.060;2023-06-14T13:14:38;9;8;
51052;PMS5003;37093;37.716;-122.060;2023-06-14T13:17:07;5;5;
51052;PMS5003;37093;37.716;-122.060;2023-06-14T13:19:36;7;5;
51052;PMS5003;37093;37.716;-122.060;2023-06-14T13:22:04;8;8;
51052;PMS5003;37093;37.716;-122.060;2023-06-14T13:24:33;9;7;
51052;PMS5003;37093;37.716;-122.060;2023-06-14T13:27:01;6;6;
51052;PMS5003;37093;37.716;-122.060;2023-06-14T13:29:30;7;6;
51052;PMS5003;37093;37.716;-122.060;2023-06-14T13:31:58;16;7;
51052;PMS5003;37093;37.716;-122.060;2023-06-14T13:34:27;6;4;
51052;PMS5003;37093;37.716;-122.060;2023-06-14T13:36:55;9;7;
51052;PMS5003;37093;37.716;-122.060;2023-06-14T13:39:24;14;13;
51052;PMS5003;37093;37.716;-122.060;2023-06-14T13:41:52;9;8;
51052;PMS5003;37093;37.716;-122.060;2023-06-14T13:44:21;9;8;
51052;PMS5003;37093;37.716;-122.060;2023-06-14T13:46:49;8;8;
51052;PMS5003;37093;37.716;-122.060;2023-06-14T13:49:18;10;9;
51052;PMS5003;37093;37.716;-122.060;2023-06-14T13:51:46;11;10;
51052;PMS5003;37093;37.716;-122.060;2023-06-14T13:54:18;12;11;
51052;PMS5003;37093;37.716;-122.060;2023-06-14T13:56:47;9;7;
51052;PMS5003;37093;37.716;-122.060;2023-06-14T13:59:16;10;10;
51052;PMS5003;37093;37.716;-122.060;2023-06-14T14:01:44;7;7;
51052;PMS5003;37093;37.716;-122.060;2023-06-14T14:04:13;5;5;
51052;PMS5003;37093;37.716;-122.060;2023-06-14T14:06:42;6;5;
51052;PMS5003;37093;37.716;-122.060;2023-06-14T14:09:10;8;7;
51052;PMS5003;37093;37.716;-122.060;2023-06-14T14:11:39;9;7;
51052;PMS5003;37093;37.716;-122.060;2023-06-14T14:14:07;9;9;
51052;PMS5003;37093;37.716;-122.060;2023-06-14T14:16:36;12;9;
51052;PMS5003;37093;37.716;-122.060;2023-06-14T14:19:04;7;7;
51052;PMS5003;37093;37.716;-122.060;2023-06-14T14:21:33;11;9;
51052;PMS5003;37093;37.716;-122.060;2023-06-14T14:24:01;12;8;
51052;PMS5003;37093;37.716;-122.060;2023-06-14T14:26:30;7;7;
51052;PMS5003;37093;37.716;-122.060;2023-06-14T14:28:58;12;9;
51052;PMS5003;37093;37.716;-122.060;2023-06-14T14:31:27;9;8;
51052;PMS5003;37093;37.716;-122.060;2023-06-14T14:33:55;10;10;
51052;PMS5003;37093;37.716;-122.060;2023-06-14T14:36:23;11;10;
51052;PMS5003;37093;37.716;-122.060;2023-06-14T14:38:52;10;9;
51052;PMS5003;37093;37.716;-122.060;2023-06-14T14:41:21;9;7;
51052;PMS5003;37093;37.716;-122.060;2023-06-14T14:43:49;13;12;
51052;PMS5003;37093;37.716;-122.060;2023-06-14T14:46:18;10;9;
51052;PMS5003;37093;37.716;-122.060;2023-06-14T14:48:46;11;9;
51052;PMS5003;37093;37.716;-122.060;2023-06-14T14:51:14;9;7;
51052;PMS5003;37093;37.716;-122.060;2023-06-14T14:53:43;8;8;
51052;PMS5003;37093;37.716;-122.060;2023-06-14T14:56:11;9;6;
51052;PMS5003;37093;37.716;-122.060;2023-06-14T14:58:39;8;8;
51052;PMS5003;37093;37.716;-122.060;2023-06-14T15:01:08;12;10;
51052;PMS5003;37093;37.716;-122.060;2023-06-14T15:03:36;8;8;
51052;PMS5003;37093;37.716;-122.060;2023-06-14T15:06:05;9;9;
51052;PMS5003;37093;37.716;-122.060;2023-06-14T15:08:33;14;12;
51052;PMS5003;37093;37.716;-122.060;2023-06-14T15:11:02;11;8;
51052;PMS5003;37093;37.716;-122.060;2023-06-14T15:13:31;12;8;
51052;PMS5003;37093;37.716;-122.060;2023-06-14T15:15:59;13;10;
51052;PMS5003;37093;37.716;-122.060;2023-06-14T15:18:27;8;8;
51052;PMS5003;37093;37.716;-122.060;2023-06-14T15:20:56;8;8;
51052;PMS5003;37093;37.716;-122.060;2023-06-14T15:23:25;7;7;
51052;PMS5003;37093;37.716;-122.060;2023-06-14T15:25:53;11;8;
51052;PMS5003;37093;37.716;-122.060;2023-06-14T15:28:22;10;10;
51052;PMS5003;37093;37.716;-122.060;2023-06-14T15:30:50;7;7;
51052;PMS5003;37093;37.716;-122.060;2023-06-14T15:33:19;11;9;
51052;PMS5003;37093;37.716;-122.060;2023-06-14T15:35:47;7;7;
51052;PMS5003;37093;37.716;-122.060;2023-06-14T15:38:16;10;9;
51052;PMS5003;37093;37.716;-122.060;2023-06-14T15:40:44;9;8;
51052;PMS5003;37093;37.716;-122.060;2023-06-14T15:43:13;11;11;
51052;PMS5003;37093;37.716;-122.060;2023-06-14T15:45:41;9;9;
51052;PMS5003;37093;37.716;-122.060;2023-06-14T15:48:10;13;10;
51052;PMS5003;37093;37.716;-122.060;2023-06-14T15:50:38;11;10;
51052;PMS5003;37093;37.716;-122.060;2023-06-14T15:53:07;12;11;
51052;PMS5003;37093;37.716;-122.060;2023-06-14T15:55:35;10;10;
51052;PMS5003;37093;37.716;-122.060;2023-06-14T15:58:04;15;10;
51052;PMS5003;37093;37.716;-122.060;2023-06-14T16:00:32;12;9;
51052;PMS5003;37093;37.716;-122.060;2023-06-14T16:03:01;13;10;
51052;PMS5003;37093;37.716;-122.060;2023-06-14T16:05:29;10;8;
51052;PMS5003;37093;37.716;-122.060;2023-06-14T16:07:57;7;7;
51052;PMS5003;37093;37.716;-122.060;2023-06-14T16:10:26;11;10;
51052;PMS5003;37093;37.716;-122.060;2023-06-14T16:12:54;13;9;